sensor_id;sensor_type;location;lat;lon;timestamp;P1;durP1;ratioP1;P2;durP2;ratioP2
54332;SDS011;40230;41.860;21.940;2022-09-16T00:00:35;8.82;;;3.90;;
54332;SDS011;40230;41.860;21.940;2022-09-16T00:03:01;3.80;;;3.28;;
54332;SDS011;40230;41.860;21.940;2022-09-16T00:05:27;6.78;;;3.92;;
54332;SDS011;40230;41.860;21.940;2022-09-16T00:07:53;6.88;;;4.20;;
54332;SDS011;40230;41.860;21.940;2022-09-16T00:10:20;6.75;;;4.07;;
54332;SDS011;40230;41.860;21.940;2022-09-16T00:12:47;5.40;;;3.80;;
54332;SDS011;40230;41.860;21.940;2022-09-16T00:15:13;5.57;;;4.35;;
54332;SDS011;40230;41.860;21.940;2022-09-16T00:17:39;5.07;;;3.30;;
54332;SDS011;40230;41.860;21.940;2022-09-16T00:20:05;6.32;;;3.45;;
54332;SDS011;40230;41.860;21.940;2022-09-16T00:22:32;6.20;;;4.00;;
54332;SDS011;40230;41.860;21.940;2022-09-16T00:24:58;5.43;;;3.40;;
54332;SDS011;40230;41.860;21.940;2022-09-16T00:27:24;4.40;;;3.45;;
54332;SDS011;40230;41.860;21.940;2022-09-16T00:29:50;5.22;;;3.65;;
54332;SDS011;40230;41.860;21.940;2022-09-16T00:32:16;5.38;;;3.35;;
54332;SDS011;40230;41.860;21.940;2022-09-16T00:34:42;5.93;;;3.50;;
54332;SDS011;40230;41.860;21.940;2022-09-16T00:37:08;6.72;;;4.13;;
54332;SDS011;40230;41.860;21.940;2022-09-16T00:39:36;5.20;;;3.70;;
54332;SDS011;40230;41.860;21.940;2022-09-16T00:42:02;6.68;;;3.85;;
54332;SDS011;40230;41.860;21.940;2022-09-16T00:47:15;7.10;;;3.65;;
54332;SDS011;40230;41.860;21.940;2022-09-16T00:49:43;7.55;;;4.70;;
54332;SDS011;40230;41.860;21.940;2022-09-16T00:52:10;4.47;;;3.50;;
54332;SDS011;40230;41.860;21.940;2022-09-16T00:54:36;5.10;;;3.72;;
54332;SDS011;40230;41.860;21.940;2022-09-16T00:57:04;8.05;;;4.05;;
54332;SDS011;40230;41.860;21.940;2022-09-16T00:59:33;7.25;;;4.25;;
54332;SDS011;40230;41.860;21.940;2022-09-16T01:02:02;6.15;;;3.42;;
54332;SDS011;40230;41.860;21.940;2022-09-16T01:04:30;8.05;;;3.17;;
54332;SDS011;40230;41.860;21.940;2022-09-16T01:06:57;6.15;;;3.60;;
54332;SDS011;40230;41.860;21.940;2022-09-16T01:09:24;5.25;;;4.03;;
54332;SDS011;40230;41.860;21.940;2022-09-16T01:11:51;5.63;;;3.95;;
54332;SDS011;40230;41.860;21.940;2022-09-16T01:14:17;5.03;;;4.15;;
54332;SDS011;40230;41.860;21.940;2022-09-16T01:17:15;6.13;;;4.43;;
54332;SDS011;40230;41.860;21.940;2022-09-16T01:33:15;6.18;;;4.45;;
54332;SDS011;40230;41.860;21.940;2022-09-16T01:51:26;5.90;;;4.25;;
54332;SDS011;40230;41.860;21.940;2022-09-16T01:54:00;6.97;;;3.78;;
54332;SDS011;40230;41.860;21.940;2022-09-16T02:01:46;5.13;;;3.88;;
54332;SDS011;40230;41.860;21.940;2022-09-16T02:04:15;5.95;;;3.83;;
54332;SDS011;40230;41.860;21.940;2022-09-16T02:06:43;4.68;;;3.42;;
54332;SDS011;40230;41.860;21.940;2022-09-16T02:09:20;6.80;;;3.75;;
54332;SDS011;40230;41.860;21.940;2022-09-16T02:11:48;6.10;;;3.53;;
54332;SDS011;40230;41.860;21.940;2022-09-16T02:14:21;5.68;;;4.00;;
54332;SDS011;40230;41.860;21.940;2022-09-16T02:19:17;5.20;;;3.65;;
54332;SDS011;40230;41.860;21.940;2022-09-16T02:21:45;5.05;;;3.60;;
54332;SDS011;40230;41.860;21.940;2022-09-16T02:24:13;6.50;;;4.13;;
54332;SDS011;40230;41.860;21.940;2022-09-16T02:26:43;6.10;;;4.22;;
54332;SDS011;40230;41.860;21.940;2022-09-16T02:29:12;11.52;;;7.28;;
54332;SDS011;40230;41.860;21.940;2022-09-16T02:31:40;8.38;;;5.78;;
54332;SDS011;40230;41.860;21.940;2022-09-16T02:34:10;8.18;;;4.57;;
54332;SDS011;40230;41.860;21.940;2022-09-16T02:36:38;5.13;;;4.22;;
54332;SDS011;40230;41.860;21.940;2022-09-16T02:39:06;7.63;;;4.88;;
54332;SDS011;40230;41.860;21.940;2022-09-16T02:41:34;7.13;;;4.20;;
54332;SDS011;40230;41.860;21.940;2022-09-16T02:44:01;5.18;;;4.20;;
54332;SDS011;40230;41.860;21.940;2022-09-16T02:48:58;7.18;;;4.43;;
54332;SDS011;40230;41.860;21.940;2022-09-16T02:56:36;6.68;;;5.13;;
54332;SDS011;40230;41.860;21.940;2022-09-16T02:59:04;9.25;;;5.05;;
54332;SDS011;40230;41.860;21.940;2022-09-16T03:01:32;6.03;;;4.72;;
54332;SDS011;40230;41.860;21.940;2022-09-16T03:03:58;6.65;;;5.13;;
54332;SDS011;40230;41.860;21.940;2022-09-16T03:06:25;6.00;;;4.20;;
54332;SDS011;40230;41.860;21.940;2022-09-16T03:08:53;7.05;;;4.80;;
54332;SDS011;40230;41.860;21.940;2022-09-16T03:16:59;6.95;;;4.35;;
54332;SDS011;40230;41.860;21.940;2022-09-16T03:27:23;6.50;;;5.00;;
54332;SDS011;40230;41.860;21.940;2022-09-16T03:30:02;5.18;;;4.50;;
54332;SDS011;40230;41.860;21.940;2022-09-16T03:35:09;6.63;;;4.65;;
54332;SDS011;40230;41.860;21.940;2022-09-16T03:37:36;6.13;;;4.68;;
54332;SDS011;40230;41.860;21.940;2022-09-16T03:40:04;6.90;;;5.07;;
54332;SDS011;40230;41.860;21.940;2022-09-16T03:42:33;9.82;;;7.97;;
54332;SDS011;40230;41.860;21.940;2022-09-16T03:44:59;7.50;;;5.60;;
54332;SDS011;40230;41.860;21.940;2022-09-16T03:47:25;8.10;;;5.15;;
54332;SDS011;40230;41.860;21.940;2022-09-16T03:49:51;6.13;;;4.55;;
54332;SDS011;40230;41.860;21.940;2022-09-16T03:52:17;8.15;;;4.60;;
54332;SDS011;40230;41.860;21.940;2022-09-16T03:54:44;8.95;;;5.47;;
54332;SDS011;40230;41.860;21.940;2022-09-16T03:57:10;7.50;;;4.85;;
54332;SDS011;40230;41.860;21.940;2022-09-16T03:59:36;6.55;;;4.75;;
54332;SDS011;40230;41.860;21.940;2022-09-16T04:02:02;7.72;;;5.28;;
54332;SDS011;40230;41.860;21.940;2022-09-16T04:04:28;9.13;;;5.97;;
54332;SDS011;40230;41.860;21.940;2022-09-16T04:06:54;5.28;;;4.70;;
54332;SDS011;40230;41.860;21.940;2022-09-16T04:09:20;5.60;;;4.82;;
54332;SDS011;40230;41.860;21.940;2022-09-16T04:11:46;6.43;;;4.50;;
54332;SDS011;40230;41.860;21.940;2022-09-16T04:14:13;7.47;;;4.32;;
54332;SDS011;40230;41.860;21.940;2022-09-16T04:16:39;10.10;;;4.72;;
54332;SDS011;40230;41.860;21.940;2022-09-16T04:19:05;5.78;;;4.40;;
54332;SDS011;40230;41.860;21.940;2022-09-16T04:21:31;6.95;;;4.68;;
54332;SDS011;40230;41.860;21.940;2022-09-16T04:23:58;8.82;;;4.97;;
54332;SDS011;40230;41.860;21.940;2022-09-16T04:26:24;9.93;;;6.53;;
54332;SDS011;40230;41.860;21.940;2022-09-16T04:28:53;10.73;;;6.60;;
54332;SDS011;40230;41.860;21.940;2022-09-16T04:31:19;8.23;;;5.68;;
54332;SDS011;40230;41.860;21.940;2022-09-16T04:33:48;8.02;;;6.05;;
54332;SDS011;40230;41.860;21.940;2022-09-16T04:36:16;11.07;;;6.45;;
54332;SDS011;40230;41.860;21.940;2022-09-16T04:38:43;8.27;;;6.20;;
54332;SDS011;40230;41.860;21.940;2022-09-16T04:41:13;11.25;;;5.50;;
54332;SDS011;40230;41.860;21.940;2022-09-16T04:43:39;13.85;;;9.30;;
54332;SDS011;40230;41.860;21.940;2022-09-16T04:46:06;9.30;;;5.75;;
54332;SDS011;40230;41.860;21.940;2022-09-16T04:48:32;9.35;;;5.10;;
54332;SDS011;40230;41.860;21.940;2022-09-16T04:53:47;19.23;;;7.50;;
54332;SDS011;40230;41.860;21.940;2022-09-16T04:56:18;24.70;;;19.83;;
54332;SDS011;40230;41.860;21.940;2022-09-16T04:58:45;10.35;;;6.07;;
54332;SDS011;40230;41.860;21.940;2022-09-16T05:01:12;9.30;;;6.70;;
54332;SDS011;40230;41.860;21.940;2022-09-16T05:03:39;14.25;;;10.65;;
54332;SDS011;40230;41.860;21.940;2022-09-16T05:06:06;28.88;;;21.02;;
54332;SDS011;40230;41.860;21.940;2022-09-16T05:08:33;13.32;;;8.43;;
54332;SDS011;40230;41.860;21.940;2022-09-16T05:11:09;18.92;;;14.13;;
54332;SDS011;40230;41.860;21.940;2022-09-16T05:13:36;17.30;;;12.15;;
54332;SDS011;40230;41.860;21.940;2022-09-16T05:18:48;6.90;;;4.68;;
54332;SDS011;40230;41.860;21.940;2022-09-16T05:21:16;8.32;;;4.22;;
54332;SDS011;40230;41.860;21.940;2022-09-16T05:23:42;9.38;;;4.88;;
54332;SDS011;40230;41.860;21.940;2022-09-16T05:26:10;8.32;;;4.82;;
54332;SDS011;40230;41.860;21.940;2022-09-16T05:28:36;7.47;;;4.78;;
54332;SDS011;40230;41.860;21.940;2022-09-16T05:31:18;6.55;;;4.68;;
54332;SDS011;40230;41.860;21.940;2022-09-16T05:33:46;7.13;;;5.30;;
54332;SDS011;40230;41.860;21.940;2022-09-16T05:36:14;7.72;;;5.25;;
54332;SDS011;40230;41.860;21.940;2022-09-16T05:38:41;10.80;;;5.30;;
54332;SDS011;40230;41.860;21.940;2022-09-16T05:41:07;9.15;;;4.85;;
54332;SDS011;40230;41.860;21.940;2022-09-16T05:43:33;6.80;;;5.47;;
54332;SDS011;40230;41.860;21.940;2022-09-16T05:46:00;13.57;;;5.40;;
54332;SDS011;40230;41.860;21.940;2022-09-16T05:48:26;6.95;;;5.00;;
54332;SDS011;40230;41.860;21.940;2022-09-16T05:50:53;10.82;;;7.57;;
54332;SDS011;40230;41.860;21.940;2022-09-16T05:53:19;11.40;;;8.02;;
54332;SDS011;40230;41.860;21.940;2022-09-16T05:58:31;9.57;;;7.50;;
54332;SDS011;40230;41.860;21.940;2022-09-16T06:01:08;13.57;;;9.98;;
54332;SDS011;40230;41.860;21.940;2022-09-16T06:03:35;15.05;;;10.93;;
54332;SDS011;40230;41.860;21.940;2022-09-16T06:06:03;17.52;;;11.73;;
54332;SDS011;40230;41.860;21.940;2022-09-16T06:08:30;18.13;;;14.02;;
54332;SDS011;40230;41.860;21.940;2022-09-16T06:10:59;15.48;;;11.93;;
54332;SDS011;40230;41.860;21.940;2022-09-16T06:13:25;12.85;;;9.63;;
54332;SDS011;40230;41.860;21.940;2022-09-16T06:15:52;10.68;;;9.57;;
54332;SDS011;40230;41.860;21.940;2022-09-16T06:18:19;12.23;;;8.75;;
54332;SDS011;40230;41.860;21.940;2022-09-16T06:20:45;15.20;;;11.27;;
54332;SDS011;40230;41.860;21.940;2022-09-16T06:23:11;12.52;;;8.55;;
54332;SDS011;40230;41.860;21.940;2022-09-16T06:25:37;30.02;;;24.88;;
54332;SDS011;40230;41.860;21.940;2022-09-16T06:28:04;15.50;;;11.27;;
54332;SDS011;40230;41.860;21.940;2022-09-16T06:30:30;16.77;;;10.35;;
54332;SDS011;40230;41.860;21.940;2022-09-16T06:32:56;19.05;;;12.57;;
54332;SDS011;40230;41.860;21.940;2022-09-16T06:35:22;14.30;;;10.45;;
54332;SDS011;40230;41.860;21.940;2022-09-16T06:37:48;14.52;;;10.90;;
54332;SDS011;40230;41.860;21.940;2022-09-16T06:40:14;14.25;;;9.75;;
54332;SDS011;40230;41.860;21.940;2022-09-16T06:42:41;11.30;;;9.05;;
54332;SDS011;40230;41.860;21.940;2022-09-16T06:45:07;10.00;;;7.78;;
54332;SDS011;40230;41.860;21.940;2022-09-16T06:47:33;12.30;;;7.57;;
54332;SDS011;40230;41.860;21.940;2022-09-16T06:50:00;32.45;;;29.00;;
54332;SDS011;40230;41.860;21.940;2022-09-16T06:52:26;26.20;;;23.42;;
54332;SDS011;40230;41.860;21.940;2022-09-16T06:54:53;20.35;;;17.75;;
54332;SDS011;40230;41.860;21.940;2022-09-16T06:57:19;10.43;;;9.38;;
54332;SDS011;40230;41.860;21.940;2022-09-16T06:59:47;18.33;;;16.45;;
54332;SDS011;40230;41.860;21.940;2022-09-16T07:02:13;29.65;;;26.83;;
54332;SDS011;40230;41.860;21.940;2022-09-16T07:04:40;18.65;;;16.48;;
54332;SDS011;40230;41.860;21.940;2022-09-16T07:07:06;17.30;;;14.45;;
54332;SDS011;40230;41.860;21.940;2022-09-16T07:09:32;13.38;;;11.98;;
54332;SDS011;40230;41.860;21.940;2022-09-16T07:11:59;9.18;;;8.27;;
54332;SDS011;40230;41.860;21.940;2022-09-16T07:14:25;8.48;;;7.20;;
54332;SDS011;40230;41.860;21.940;2022-09-16T07:16:51;9.88;;;6.35;;
54332;SDS011;40230;41.860;21.940;2022-09-16T07:19:17;5.90;;;4.55;;
54332;SDS011;40230;41.860;21.940;2022-09-16T07:21:43;5.28;;;3.42;;
54332;SDS011;40230;41.860;21.940;2022-09-16T07:24:11;9.32;;;4.10;;
54332;SDS011;40230;41.860;21.940;2022-09-16T07:26:37;7.45;;;4.30;;
54332;SDS011;40230;41.860;21.940;2022-09-16T07:29:05;7.38;;;3.78;;
54332;SDS011;40230;41.860;21.940;2022-09-16T07:31:32;7.50;;;4.50;;
54332;SDS011;40230;41.860;21.940;2022-09-16T07:33:59;5.40;;;3.83;;
54332;SDS011;40230;41.860;21.940;2022-09-16T07:36:27;4.75;;;3.15;;
54332;SDS011;40230;41.860;21.940;2022-09-16T07:38:54;7.03;;;3.88;;
54332;SDS011;40230;41.860;21.940;2022-09-16T07:41:22;6.80;;;3.70;;
54332;SDS011;40230;41.860;21.940;2022-09-16T07:43:49;5.50;;;3.30;;
54332;SDS011;40230;41.860;21.940;2022-09-16T07:46:16;8.45;;;4.63;;
54332;SDS011;40230;41.860;21.940;2022-09-16T07:48:43;6.72;;;4.18;;
54332;SDS011;40230;41.860;21.940;2022-09-16T07:51:10;8.18;;;4.00;;
54332;SDS011;40230;41.860;21.940;2022-09-16T07:53:37;6.55;;;3.35;;
54332;SDS011;40230;41.860;21.940;2022-09-16T07:58:32;7.85;;;3.65;;
54332;SDS011;40230;41.860;21.940;2022-09-16T08:00:58;19.77;;;17.23;;
54332;SDS011;40230;41.860;21.940;2022-09-16T08:03:24;43.05;;;38.80;;
54332;SDS011;40230;41.860;21.940;2022-09-16T08:05:50;28.10;;;25.35;;
54332;SDS011;40230;41.860;21.940;2022-09-16T08:08:16;14.93;;;12.15;;
54332;SDS011;40230;41.860;21.940;2022-09-16T08:10:42;9.85;;;7.45;;
54332;SDS011;40230;41.860;21.940;2022-09-16T08:13:09;9.98;;;5.93;;
54332;SDS011;40230;41.860;21.940;2022-09-16T08:15:35;8.52;;;5.22;;
54332;SDS011;40230;41.860;21.940;2022-09-16T08:18:01;10.70;;;4.47;;
54332;SDS011;40230;41.860;21.940;2022-09-16T08:20:27;9.93;;;4.30;;
54332;SDS011;40230;41.860;21.940;2022-09-16T08:22:53;6.93;;;3.60;;
54332;SDS011;40230;41.860;21.940;2022-09-16T08:25:19;8.05;;;3.35;;
54332;SDS011;40230;41.860;21.940;2022-09-16T08:27:45;6.22;;;2.45;;
54332;SDS011;40230;41.860;21.940;2022-09-16T08:30:11;8.77;;;3.10;;
54332;SDS011;40230;41.860;21.940;2022-09-16T08:32:37;5.93;;;2.80;;
54332;SDS011;40230;41.860;21.940;2022-09-16T08:35:03;5.50;;;2.80;;
54332;SDS011;40230;41.860;21.940;2022-09-16T08:37:30;8.07;;;2.47;;
54332;SDS011;40230;41.860;21.940;2022-09-16T08:39:56;6.47;;;2.55;;
54332;SDS011;40230;41.860;21.940;2022-09-16T08:42:27;6.85;;;3.20;;
54332;SDS011;40230;41.860;21.940;2022-09-16T08:45:02;5.97;;;2.80;;
54332;SDS011;40230;41.860;21.940;2022-09-16T08:50:25;7.85;;;2.60;;
54332;SDS011;40230;41.860;21.940;2022-09-16T08:52:51;7.30;;;2.25;;
54332;SDS011;40230;41.860;21.940;2022-09-16T08:58:20;6.40;;;2.28;;
54332;SDS011;40230;41.860;21.940;2022-09-16T09:00:56;4.10;;;2.40;;
54332;SDS011;40230;41.860;21.940;2022-09-16T09:05:56;4.32;;;2.13;;
54332;SDS011;40230;41.860;21.940;2022-09-16T09:11:22;7.63;;;2.40;;
54332;SDS011;40230;41.860;21.940;2022-09-16T09:18:51;9.20;;;3.28;;
54332;SDS011;40230;41.860;21.940;2022-09-16T09:26:21;7.88;;;3.30;;
54332;SDS011;40230;41.860;21.940;2022-09-16T09:33:46;7.32;;;2.70;;
54332;SDS011;40230;41.860;21.940;2022-09-16T09:41:47;9.80;;;3.33;;
54332;SDS011;40230;41.860;21.940;2022-09-16T09:47:01;12.02;;;3.13;;
54332;SDS011;40230;41.860;21.940;2022-09-16T09:49:45;13.93;;;2.97;;
54332;SDS011;40230;41.860;21.940;2022-09-16T09:54:59;8.20;;;3.05;;
54332;SDS011;40230;41.860;21.940;2022-09-16T10:00:13;14.20;;;3.72;;
54332;SDS011;40230;41.860;21.940;2022-09-16T10:02:41;8.07;;;3.13;;
54332;SDS011;40230;41.860;21.940;2022-09-16T10:05:17;8.38;;;2.90;;
54332;SDS011;40230;41.860;21.940;2022-09-16T10:07:44;11.02;;;2.67;;
54332;SDS011;40230;41.860;21.940;2022-09-16T10:10:31;7.68;;;2.85;;
54332;SDS011;40230;41.860;21.940;2022-09-16T10:13:11;5.13;;;2.17;;
54332;SDS011;40230;41.860;21.940;2022-09-16T10:15:40;4.03;;;2.38;;
54332;SDS011;40230;41.860;21.940;2022-09-16T10:18:27;12.20;;;9.00;;
54332;SDS011;40230;41.860;21.940;2022-09-16T10:20:56;5.68;;;2.88;;
54332;SDS011;40230;41.860;21.940;2022-09-16T10:23:22;4.60;;;2.08;;
54332;SDS011;40230;41.860;21.940;2022-09-16T10:26:01;4.90;;;2.30;;
54332;SDS011;40230;41.860;21.940;2022-09-16T10:28:28;11.00;;;7.28;;
54332;SDS011;40230;41.860;21.940;2022-09-16T10:30:55;5.43;;;2.13;;
54332;SDS011;40230;41.860;21.940;2022-09-16T10:33:29;4.15;;;2.05;;
54332;SDS011;40230;41.860;21.940;2022-09-16T10:35:57;7.18;;;2.33;;
54332;SDS011;40230;41.860;21.940;2022-09-16T10:38:34;5.13;;;2.72;;
54332;SDS011;40230;41.860;21.940;2022-09-16T10:43:56;3.42;;;1.80;;
54332;SDS011;40230;41.860;21.940;2022-09-16T10:46:22;6.07;;;2.10;;
54332;SDS011;40230;41.860;21.940;2022-09-16T10:48:49;5.32;;;2.70;;
54332;SDS011;40230;41.860;21.940;2022-09-16T10:54:02;3.38;;;1.30;;
54332;SDS011;40230;41.860;21.940;2022-09-16T10:59:14;1.98;;;1.65;;
54332;SDS011;40230;41.860;21.940;2022-09-16T11:01:47;4.60;;;1.50;;
54332;SDS011;40230;41.860;21.940;2022-09-16T11:04:23;7.57;;;2.53;;
54332;SDS011;40230;41.860;21.940;2022-09-16T11:06:54;5.25;;;1.20;;
54332;SDS011;40230;41.860;21.940;2022-09-16T11:14:44;4.60;;;1.95;;
54332;SDS011;40230;41.860;21.940;2022-09-16T11:17:17;7.15;;;2.70;;
54332;SDS011;40230;41.860;21.940;2022-09-16T11:24:56;2.25;;;1.02;;
54332;SDS011;40230;41.860;21.940;2022-09-16T11:30:13;7.55;;;4.60;;
54332;SDS011;40230;41.860;21.940;2022-09-16T11:32:45;3.45;;;2.17;;
54332;SDS011;40230;41.860;21.940;2022-09-16T11:38:24;17.77;;;16.10;;
54332;SDS011;40230;41.860;21.940;2022-09-16T11:48:40;2.45;;;1.20;;
54332;SDS011;40230;41.860;21.940;2022-09-16T11:58:54;3.40;;;1.35;;
54332;SDS011;40230;41.860;21.940;2022-09-16T12:03:48;29.27;;;10.75;;
54332;SDS011;40230;41.860;21.940;2022-09-16T12:06:17;44.88;;;18.80;;
54332;SDS011;40230;41.860;21.940;2022-09-16T12:08:50;10.55;;;4.65;;
54332;SDS011;40230;41.860;21.940;2022-09-16T12:11:25;11.15;;;3.35;;
54332;SDS011;40230;41.860;21.940;2022-09-16T12:13:58;5.35;;;1.63;;
54332;SDS011;40230;41.860;21.940;2022-09-16T12:16:29;4.85;;;1.63;;
54332;SDS011;40230;41.860;21.940;2022-09-16T12:18:57;3.22;;;0.82;;
54332;SDS011;40230;41.860;21.940;2022-09-16T12:21:39;6.82;;;1.58;;
54332;SDS011;40230;41.860;21.940;2022-09-16T12:26:56;18.58;;;7.10;;
54332;SDS011;40230;41.860;21.940;2022-09-16T12:29:30;45.53;;;13.43;;
54332;SDS011;40230;41.860;21.940;2022-09-16T12:32:06;10.73;;;3.35;;
54332;SDS011;40230;41.860;21.940;2022-09-16T12:34:36;33.92;;;12.63;;
54332;SDS011;40230;41.860;21.940;2022-09-16T12:39:35;23.55;;;7.47;;
54332;SDS011;40230;41.860;21.940;2022-09-16T12:47:16;6.13;;;1.73;;
54332;SDS011;40230;41.860;21.940;2022-09-16T13:00:20;4.15;;;1.60;;
54332;SDS011;40230;41.860;21.940;2022-09-16T13:02:51;5.13;;;1.60;;
54332;SDS011;40230;41.860;21.940;2022-09-16T13:08:04;3.15;;;1.15;;
54332;SDS011;40230;41.860;21.940;2022-09-16T13:10:35;4.18;;;1.15;;
54332;SDS011;40230;41.860;21.940;2022-09-16T13:13:01;4.75;;;2.97;;
54332;SDS011;40230;41.860;21.940;2022-09-16T13:26:14;2.58;;;0.88;;
54332;SDS011;40230;41.860;21.940;2022-09-16T13:28:41;4.28;;;1.20;;
54332;SDS011;40230;41.860;21.940;2022-09-16T13:33:34;3.25;;;0.70;;
54332;SDS011;40230;41.860;21.940;2022-09-16T13:36:11;2.35;;;0.90;;
54332;SDS011;40230;41.860;21.940;2022-09-16T13:38:39;5.13;;;1.40;;
54332;SDS011;40230;41.860;21.940;2022-09-16T13:41:09;3.58;;;1.30;;
54332;SDS011;40230;41.860;21.940;2022-09-16T13:43:36;3.95;;;1.20;;
54332;SDS011;40230;41.860;21.940;2022-09-16T13:51:28;4.00;;;1.95;;
54332;SDS011;40230;41.860;21.940;2022-09-16T13:53:55;2.47;;;0.90;;
54332;SDS011;40230;41.860;21.940;2022-09-16T13:59:21;2.72;;;1.23;;
54332;SDS011;40230;41.860;21.940;2022-09-16T14:04:40;2.67;;;0.90;;
54332;SDS011;40230;41.860;21.940;2022-09-16T14:10:20;2.85;;;0.77;;
54332;SDS011;40230;41.860;21.940;2022-09-16T14:15:17;3.97;;;2.22;;
54332;SDS011;40230;41.860;21.940;2022-09-16T14:17:46;3.78;;;1.58;;
54332;SDS011;40230;41.860;21.940;2022-09-16T14:20:14;3.28;;;1.00;;
54332;SDS011;40230;41.860;21.940;2022-09-16T14:22:41;2.40;;;0.90;;
54332;SDS011;40230;41.860;21.940;2022-09-16T14:28:05;2.97;;;1.17;;
54332;SDS011;40230;41.860;21.940;2022-09-16T14:30:31;4.35;;;1.95;;
54332;SDS011;40230;41.860;21.940;2022-09-16T14:32:57;4.35;;;2.00;;
54332;SDS011;40230;41.860;21.940;2022-09-16T14:35:26;3.90;;;1.67;;
54332;SDS011;40230;41.860;21.940;2022-09-16T14:37:53;4.78;;;1.40;;
54332;SDS011;40230;41.860;21.940;2022-09-16T14:40:20;3.70;;;1.67;;
54332;SDS011;40230;41.860;21.940;2022-09-16T14:42:48;2.25;;;0.85;;
54332;SDS011;40230;41.860;21.940;2022-09-16T14:45:15;2.45;;;0.98;;
54332;SDS011;40230;41.860;21.940;2022-09-16T14:47:42;5.72;;;1.30;;
54332;SDS011;40230;41.860;21.940;2022-09-16T14:50:51;4.95;;;0.90;;
54332;SDS011;40230;41.860;21.940;2022-09-16T14:53:02;4.35;;;1.42;;
54332;SDS011;40230;41.860;21.940;2022-09-16T14:55:29;3.85;;;0.88;;
54332;SDS011;40230;41.860;21.940;2022-09-16T14:57:56;3.20;;;1.63;;
54332;SDS011;40230;41.860;21.940;2022-09-16T15:00:23;2.85;;;1.00;;
54332;SDS011;40230;41.860;21.940;2022-09-16T15:03:34;2.10;;;1.33;;
54332;SDS011;40230;41.860;21.940;2022-09-16T15:05:40;4.03;;;0.93;;
54332;SDS011;40230;41.860;21.940;2022-09-16T15:10:35;2.28;;;0.63;;
54332;SDS011;40230;41.860;21.940;2022-09-16T15:13:03;2.08;;;0.60;;
54332;SDS011;40230;41.860;21.940;2022-09-16T15:15:32;2.72;;;0.60;;
54332;SDS011;40230;41.860;21.940;2022-09-16T15:18:18;3.80;;;1.10;;
54332;SDS011;40230;41.860;21.940;2022-09-16T15:20:49;2.50;;;1.10;;
54332;SDS011;40230;41.860;21.940;2022-09-16T15:23:19;2.58;;;0.80;;
54332;SDS011;40230;41.860;21.940;2022-09-16T15:25:55;3.05;;;1.05;;
54332;SDS011;40230;41.860;21.940;2022-09-16T15:28:21;2.53;;;0.82;;
54332;SDS011;40230;41.860;21.940;2022-09-16T15:30:49;3.85;;;1.13;;
54332;SDS011;40230;41.860;21.940;2022-09-16T15:36:00;3.75;;;1.58;;
54332;SDS011;40230;41.860;21.940;2022-09-16T15:38:27;2.65;;;0.80;;
54332;SDS011;40230;41.860;21.940;2022-09-16T15:41:03;3.75;;;1.27;;
54332;SDS011;40230;41.860;21.940;2022-09-16T15:46:16;1.33;;;0.70;;
54332;SDS011;40230;41.860;21.940;2022-09-16T15:48:56;3.08;;;0.90;;
54332;SDS011;40230;41.860;21.940;2022-09-16T15:56:54;4.68;;;1.00;;
54332;SDS011;40230;41.860;21.940;2022-09-16T16:04:36;3.40;;;1.02;;
54332;SDS011;40230;41.860;21.940;2022-09-16T16:07:03;2.97;;;0.85;;
54332;SDS011;40230;41.860;21.940;2022-09-16T16:09:34;3.92;;;1.10;;
54332;SDS011;40230;41.860;21.940;2022-09-16T16:12:03;4.88;;;1.50;;
54332;SDS011;40230;41.860;21.940;2022-09-16T16:14:30;3.33;;;1.25;;
54332;SDS011;40230;41.860;21.940;2022-09-16T16:16:57;5.20;;;1.63;;
54332;SDS011;40230;41.860;21.940;2022-09-16T16:19:23;5.22;;;1.23;;
54332;SDS011;40230;41.860;21.940;2022-09-16T16:21:50;6.50;;;1.48;;
54332;SDS011;40230;41.860;21.940;2022-09-16T16:24:17;4.18;;;1.90;;
54332;SDS011;40230;41.860;21.940;2022-09-16T16:26:44;4.28;;;1.33;;
54332;SDS011;40230;41.860;21.940;2022-09-16T16:29:10;4.50;;;1.42;;
54332;SDS011;40230;41.860;21.940;2022-09-16T16:31:36;4.40;;;1.80;;
54332;SDS011;40230;41.860;21.940;2022-09-16T16:34:02;3.88;;;2.40;;
54332;SDS011;40230;41.860;21.940;2022-09-16T16:36:29;5.40;;;1.75;;
54332;SDS011;40230;41.860;21.940;2022-09-16T16:38:55;3.17;;;1.17;;
54332;SDS011;40230;41.860;21.940;2022-09-16T16:41:21;3.72;;;1.65;;
54332;SDS011;40230;41.860;21.940;2022-09-16T16:43:48;3.60;;;1.50;;
54332;SDS011;40230;41.860;21.940;2022-09-16T16:46:15;5.70;;;2.28;;
54332;SDS011;40230;41.860;21.940;2022-09-16T16:48:42;7.38;;;4.13;;
54332;SDS011;40230;41.860;21.940;2022-09-16T16:51:09;6.45;;;3.97;;
54332;SDS011;40230;41.860;21.940;2022-09-16T16:53:36;7.72;;;3.47;;
54332;SDS011;40230;41.860;21.940;2022-09-16T16:56:03;6.85;;;3.53;;
54332;SDS011;40230;41.860;21.940;2022-09-16T16:58:30;5.70;;;3.03;;
54332;SDS011;40230;41.860;21.940;2022-09-16T17:01:04;7.55;;;3.65;;
54332;SDS011;40230;41.860;21.940;2022-09-16T17:03:30;26.90;;;18.80;;
54332;SDS011;40230;41.860;21.940;2022-09-16T17:05:57;14.70;;;11.38;;
54332;SDS011;40230;41.860;21.940;2022-09-16T17:08:23;31.27;;;19.48;;
54332;SDS011;40230;41.860;21.940;2022-09-16T17:10:56;9.40;;;5.13;;
54332;SDS011;40230;41.860;21.940;2022-09-16T17:13:29;12.15;;;6.45;;
54332;SDS011;40230;41.860;21.940;2022-09-16T17:15:55;9.80;;;5.80;;
54332;SDS011;40230;41.860;21.940;2022-09-16T17:18:21;11.75;;;6.25;;
54332;SDS011;40230;41.860;21.940;2022-09-16T17:20:48;15.38;;;8.82;;
54332;SDS011;40230;41.860;21.940;2022-09-16T17:23:14;12.55;;;7.97;;
54332;SDS011;40230;41.860;21.940;2022-09-16T17:25:40;14.63;;;8.57;;
54332;SDS011;40230;41.860;21.940;2022-09-16T17:28:06;13.35;;;6.38;;
54332;SDS011;40230;41.860;21.940;2022-09-16T17:30:32;4.72;;;2.80;;
54332;SDS011;40230;41.860;21.940;2022-09-16T17:32:58;6.57;;;3.83;;
54332;SDS011;40230;41.860;21.940;2022-09-16T17:35:24;9.27;;;4.75;;
54332;SDS011;40230;41.860;21.940;2022-09-16T17:37:50;8.65;;;5.35;;
54332;SDS011;40230;41.860;21.940;2022-09-16T17:40:16;8.32;;;5.18;;
54332;SDS011;40230;41.860;21.940;2022-09-16T17:42:45;7.45;;;3.60;;
54332;SDS011;40230;41.860;21.940;2022-09-16T17:45:15;5.72;;;3.50;;
54332;SDS011;40230;41.860;21.940;2022-09-16T17:47:41;6.93;;;3.60;;
54332;SDS011;40230;41.860;21.940;2022-09-16T17:50:07;5.97;;;3.13;;
54332;SDS011;40230;41.860;21.940;2022-09-16T17:52:34;7.28;;;2.88;;
54332;SDS011;40230;41.860;21.940;2022-09-16T17:55:00;4.47;;;2.88;;
54332;SDS011;40230;41.860;21.940;2022-09-16T17:57:26;6.28;;;3.60;;
54332;SDS011;40230;41.860;21.940;2022-09-16T17:59:52;5.57;;;3.75;;
54332;SDS011;40230;41.860;21.940;2022-09-16T18:02:18;7.10;;;3.42;;
54332;SDS011;40230;41.860;21.940;2022-09-16T18:04:46;4.93;;;3.40;;
54332;SDS011;40230;41.860;21.940;2022-09-16T18:07:13;9.90;;;5.13;;
54332;SDS011;40230;41.860;21.940;2022-09-16T18:09:39;10.70;;;6.53;;
54332;SDS011;40230;41.860;21.940;2022-09-16T18:12:05;10.55;;;6.35;;
54332;SDS011;40230;41.860;21.940;2022-09-16T18:14:31;6.88;;;4.95;;
54332;SDS011;40230;41.860;21.940;2022-09-16T18:16:57;5.40;;;3.35;;
54332;SDS011;40230;41.860;21.940;2022-09-16T18:19:24;5.60;;;2.70;;
54332;SDS011;40230;41.860;21.940;2022-09-16T18:21:50;5.05;;;1.70;;
54332;SDS011;40230;41.860;21.940;2022-09-16T18:24:16;4.57;;;1.33;;
54332;SDS011;40230;41.860;21.940;2022-09-16T18:26:43;6.28;;;2.30;;
54332;SDS011;40230;41.860;21.940;2022-09-16T18:29:10;6.68;;;3.33;;